createdAt,value
2023-04-08T00:00:06.893Z,29.38
2023-04-08T00:02:36.779Z,27.75
2023-04-08T00:05:06.524Z,27.63
2023-04-08T00:07:33.165Z,29.80
2023-04-08T00:09:59.667Z,28.73
2023-04-08T00:12:26.682Z,27.40
2023-04-08T00:14:53.160Z,29.67
2023-04-08T00:17:19.612Z,23.73
2023-04-08T00:19:46.070Z,24.33
2023-04-08T00:22:12.518Z,24.40
2023-04-08T00:24:40.544Z,23.73
2023-04-08T00:27:07.045Z,23.13
2023-04-08T00:29:33.489Z,23.13
2023-04-08T00:32:00.525Z,23.70
2023-04-08T00:34:27.116Z,20.60
2023-04-08T00:36:53.586Z,19.88
2023-04-08T00:39:20.326Z,23.23
2023-04-08T00:41:47.082Z,20.90
2023-04-08T00:44:13.574Z,20.75
2023-04-08T00:46:40.634Z,21.45
2023-04-08T00:49:09.012Z,20.73
2023-04-08T00:51:37.065Z,20.15
2023-04-08T00:54:07.252Z,19.15
2023-04-08T00:56:35.893Z,19.90
2023-04-08T00:59:02.996Z,19.23
2023-04-08T01:01:38.490Z,22.40
2023-04-08T01:06:45.325Z,19.10
2023-04-08T01:09:12.799Z,19.15
2023-04-08T01:11:45.458Z,21.77
2023-04-08T01:14:16.068Z,22.67
2023-04-08T01:16:42.650Z,18.67
2023-04-08T01:19:10.583Z,20.40
2023-04-08T01:21:37.847Z,22.42
2023-04-08T01:24:16.636Z,23.17
2023-04-08T01:26:43.713Z,17.17
2023-04-08T01:29:10.736Z,17.98
2023-04-08T01:31:40.196Z,17.60
2023-04-08T01:34:07.313Z,16.40
2023-04-08T01:36:36.122Z,19.10
2023-04-08T01:39:03.377Z,16.38
2023-04-08T01:41:30.552Z,15.55
2023-04-08T01:43:58.050Z,15.45
2023-04-08T01:46:24.682Z,15.55
2023-04-08T01:48:51.843Z,15.55
2023-04-08T01:51:20.258Z,13.88
2023-04-08T01:53:46.818Z,14.30
2023-04-08T01:56:15.976Z,13.82
2023-04-08T01:58:46.407Z,15.43
2023-04-08T02:01:15.572Z,14.57
2023-04-08T02:03:42.972Z,13.73
2023-04-08T02:06:09.691Z,15.32
2023-04-08T02:08:38.907Z,15.32
2023-04-08T02:11:05.535Z,13.95
2023-04-08T02:13:33.778Z,13.50
2023-04-08T02:16:05.039Z,14.73
2023-04-08T02:18:32.376Z,15.07
2023-04-08T02:21:06.034Z,12.60
2023-04-08T02:23:38.501Z,14.13
2023-04-08T02:26:07.654Z,14.40
2023-04-08T02:28:35.520Z,13.13
2023-04-08T02:31:03.149Z,14.43
2023-04-08T02:33:29.960Z,17.95
2023-04-08T02:35:58.525Z,15.98
2023-04-08T02:38:29.791Z,17.35
2023-04-08T02:40:56.781Z,17.10
2023-04-08T02:43:29.808Z,19.75
2023-04-08T02:45:56.461Z,15.93
2023-04-08T02:48:22.945Z,19.33
2023-04-08T02:50:49.536Z,19.77
2023-04-08T02:53:16.192Z,23.13
2023-04-08T02:55:42.856Z,27.23
2023-04-08T02:58:09.484Z,23.73
2023-04-08T03:00:37.221Z,39.28
2023-04-08T03:03:03.881Z,18.02
2023-04-08T03:05:30.612Z,20.92
2023-04-08T03:07:57.097Z,55.08
2023-04-08T03:10:26.879Z,45.92
2023-04-08T03:12:54.437Z,42.60
2023-04-08T03:15:20.951Z,23.85
2023-04-08T03:17:47.764Z,30.77
2023-04-08T03:20:14.241Z,58.78
2023-04-08T03:22:41.051Z,49.53
2023-04-08T03:25:08.779Z,44.97
2023-04-08T03:27:35.350Z,40.88
2023-04-08T03:30:01.830Z,18.40
2023-04-08T03:32:28.790Z,30.00
2023-04-08T03:34:55.321Z,34.42
2023-04-08T03:37:21.925Z,88.03
2023-04-08T03:39:48.700Z,53.65
2023-04-08T03:42:15.434Z,26.73
2023-04-08T03:44:42.204Z,44.47
2023-04-08T03:47:08.861Z,34.42
2023-04-08T03:49:35.655Z,35.63
2023-04-08T03:52:02.179Z,28.17
2023-04-08T03:54:28.620Z,21.65
2023-04-08T03:56:55.304Z,16.38
2023-04-08T03:59:21.827Z,17.40
2023-04-08T04:01:48.429Z,17.35
2023-04-08T04:04:15.072Z,10.60
2023-04-08T04:06:41.830Z,10.02
2023-04-08T04:09:08.570Z,11.13
2023-04-08T04:11:35.833Z,8.70
2023-04-08T04:14:02.396Z,9.88
2023-04-08T04:16:29.808Z,8.35
2023-04-08T04:18:58.185Z,7.95
2023-04-08T04:21:24.733Z,8.07
2023-04-08T04:23:52.438Z,9.55
2023-04-08T04:26:19.043Z,10.52
2023-04-08T04:28:45.600Z,12.48
2023-04-08T04:31:18.591Z,36.50
2023-04-08T04:33:45.305Z,34.22
2023-04-08T04:36:11.766Z,12.50
2023-04-08T04:38:38.934Z,22.48
2023-04-08T04:41:05.683Z,16.58
2023-04-08T04:43:32.276Z,21.38
2023-04-08T04:46:00.727Z,20.88
2023-04-08T04:51:47.085Z,31.77
2023-04-08T04:54:20.018Z,16.98
2023-04-08T04:56:46.802Z,23.65
2023-04-08T04:59:13.206Z,31.77
2023-04-08T05:01:41.141Z,15.98
2023-04-08T05:04:07.845Z,14.63
2023-04-08T05:06:34.935Z,15.90
2023-04-08T05:09:01.736Z,13.70
2023-04-08T05:11:28.285Z,19.35
2023-04-08T05:13:54.825Z,19.83
2023-04-08T05:16:21.378Z,12.73
2023-04-08T05:18:48.057Z,16.80
2023-04-08T05:21:14.733Z,12.48
2023-04-08T05:23:41.380Z,14.10
2023-04-08T05:26:08.840Z,11.00
2023-04-08T05:28:35.735Z,13.45
2023-04-08T05:31:02.531Z,15.15
2023-04-08T05:33:28.981Z,17.35
2023-04-08T05:35:55.502Z,14.90
2023-04-08T05:38:22.244Z,14.63
2023-04-08T05:40:48.815Z,12.88
2023-04-08T05:43:15.455Z,15.07
2023-04-08T05:45:41.958Z,12.68
2023-04-08T05:48:08.582Z,15.93
2023-04-08T05:50:35.559Z,12.13
2023-04-08T05:53:02.009Z,9.65
2023-04-08T05:55:28.566Z,11.32
2023-04-08T05:57:55.198Z,9.40
2023-04-08T06:00:22.016Z,8.45
2023-04-08T06:02:48.867Z,10.63
2023-04-08T06:05:15.494Z,10.57
2023-04-08T06:07:42.331Z,10.32
2023-04-08T06:10:11.765Z,12.25
2023-04-08T06:12:41.047Z,10.00
2023-04-08T06:15:08.381Z,13.27
2023-04-08T06:17:38.358Z,10.43
2023-04-08T06:20:06.100Z,10.63
2023-04-08T06:22:33.616Z,14.82
2023-04-08T06:25:00.042Z,11.48
2023-04-08T06:27:26.546Z,13.07
2023-04-08T06:29:53.443Z,16.52
2023-04-08T06:32:20.020Z,14.27
2023-04-08T06:34:46.546Z,14.52
2023-04-08T06:37:13.183Z,11.63
2023-04-08T06:39:39.656Z,15.98
2023-04-08T06:42:06.573Z,8.02
2023-04-08T06:44:59.344Z,6.60
2023-04-08T06:47:26.198Z,7.30
2023-04-08T06:49:52.967Z,7.43
2023-04-08T06:52:20.717Z,7.25
2023-04-08T06:54:47.150Z,7.00
2023-04-08T06:57:13.602Z,7.32
2023-04-08T06:59:40.168Z,7.72
2023-04-08T07:02:07.165Z,7.45
2023-04-08T07:04:33.663Z,7.55
2023-04-08T07:07:00.415Z,9.63
2023-04-08T07:09:27.058Z,8.88
2023-04-08T07:11:53.761Z,8.85
2023-04-08T07:14:20.546Z,11.68
2023-04-08T07:16:47.141Z,12.23
2023-04-08T07:19:13.800Z,9.07
2023-04-08T07:21:40.415Z,9.45
2023-04-08T07:24:06.970Z,12.35
2023-04-08T07:26:33.890Z,10.15
2023-04-08T07:29:00.646Z,12.55
2023-04-08T07:31:27.259Z,10.88
2023-04-08T07:33:53.816Z,22.75
2023-04-08T07:36:21.078Z,10.57
2023-04-08T07:38:47.769Z,14.13
2023-04-08T07:41:14.409Z,13.18
2023-04-08T07:43:41.010Z,12.85
2023-04-08T07:46:07.663Z,14.95
2023-04-08T07:48:34.714Z,24.77
2023-04-08T07:51:09.017Z,15.88
2023-04-08T07:56:04.178Z,16.17
2023-04-08T07:58:32.076Z,18.20
2023-04-08T08:00:59.579Z,29.88
2023-04-08T08:03:26.443Z,30.08
2023-04-08T08:05:53.073Z,24.05
2023-04-08T08:08:19.640Z,21.48
2023-04-08T08:10:46.133Z,17.77
2023-04-08T08:13:16.943Z,20.70
2023-04-08T08:15:43.698Z,21.25
2023-04-08T08:18:10.322Z,20.40
2023-04-08T08:20:36.888Z,26.25
2023-04-08T08:23:03.434Z,30.20
2023-04-08T08:25:29.910Z,33.80
2023-04-08T08:27:56.543Z,43.88
2023-04-08T08:30:23.265Z,45.55
2023-04-08T08:32:51.042Z,46.03
2023-04-08T08:35:17.585Z,47.33
2023-04-08T08:37:44.401Z,51.08
2023-04-08T08:40:11.511Z,51.58
2023-04-08T08:42:39.046Z,50.33
2023-04-08T08:45:07.261Z,53.90
2023-04-08T08:47:33.939Z,58.72
2023-04-08T08:50:00.765Z,57.08
2023-04-08T08:52:27.274Z,57.13
2023-04-08T08:55:00.140Z,55.28
2023-04-08T08:57:27.226Z,59.78
2023-04-08T08:59:55.633Z,56.05
2023-04-08T09:02:25.792Z,59.88
2023-04-08T09:04:59.833Z,56.30
2023-04-08T09:07:26.932Z,54.30
2023-04-08T09:09:54.389Z,49.70
2023-04-08T09:12:21.330Z,54.33
2023-04-08T09:14:48.325Z,53.05
2023-04-08T09:17:32.501Z,51.30
2023-04-08T09:20:11.630Z,53.13
2023-04-08T09:22:54.065Z,53.03
2023-04-08T09:25:27.731Z,48.75
2023-04-08T09:27:54.989Z,49.63
2023-04-08T09:30:22.577Z,49.00
2023-04-08T09:32:53.397Z,49.60
2023-04-08T09:35:20.564Z,47.08
2023-04-08T09:37:48.013Z,46.00
2023-04-08T09:40:18.345Z,47.28
2023-04-08T09:42:50.510Z,45.38
2023-04-08T09:45:19.175Z,45.97
2023-04-08T09:48:07.773Z,44.75
2023-04-08T09:50:39.414Z,43.10
2023-04-08T09:53:26.711Z,38.45
2023-04-08T09:55:55.438Z,42.17
2023-04-08T09:58:25.788Z,38.30
2023-04-08T10:00:53.157Z,37.95
2023-04-08T10:03:33.530Z,34.58
2023-04-08T10:06:02.091Z,36.40
2023-04-08T10:08:28.931Z,35.83
2023-04-08T10:10:56.386Z,38.60
2023-04-08T10:13:23.802Z,37.33
2023-04-08T10:15:50.884Z,32.83
2023-04-08T10:18:18.657Z,37.55
2023-04-08T10:20:45.913Z,41.95
2023-04-08T10:23:15.743Z,39.80
2023-04-08T10:25:42.468Z,36.80
2023-04-08T10:28:12.129Z,41.17
2023-04-08T10:30:41.956Z,38.42
2023-04-08T10:33:10.189Z,33.28
2023-04-08T10:35:37.655Z,32.53
2023-04-08T10:38:04.177Z,24.05
2023-04-08T10:40:37.573Z,21.98
2023-04-08T10:43:05.387Z,16.00
2023-04-08T10:45:31.868Z,19.65
2023-04-08T10:48:11.329Z,20.38
2023-04-08T10:50:37.923Z,16.77
2023-04-08T10:53:04.851Z,18.80
2023-04-08T10:55:32.399Z,19.65
2023-04-08T10:58:05.532Z,16.85
2023-04-08T11:00:33.697Z,15.95
2023-04-08T11:03:04.667Z,14.07
2023-04-08T11:05:32.556Z,16.52
2023-04-08T11:08:02.191Z,12.43
2023-04-08T11:10:29.263Z,13.90
2023-04-08T11:12:56.130Z,13.07
2023-04-08T11:15:25.851Z,12.38
2023-04-08T11:17:53.552Z,10.93
2023-04-08T11:20:20.752Z,10.07
2023-04-08T11:22:47.702Z,10.50
2023-04-08T11:25:14.373Z,10.48
2023-04-08T11:27:41.008Z,10.95
2023-04-08T11:30:08.095Z,12.65
2023-04-08T11:32:36.071Z,11.65
2023-04-08T11:35:05.355Z,11.30
2023-04-08T11:37:41.443Z,12.15
2023-04-08T11:40:09.252Z,10.10
2023-04-08T11:42:35.945Z,12.80
2023-04-08T11:45:09.902Z,12.98
2023-04-08T11:47:37.319Z,15.48
2023-04-08T11:50:04.012Z,11.75
2023-04-08T11:52:43.383Z,12.30
2023-04-08T11:55:10.958Z,14.82
2023-04-08T11:57:37.720Z,15.18
2023-04-08T12:00:07.635Z,15.07
2023-04-08T12:02:37.330Z,14.15
2023-04-08T12:05:04.343Z,16.27
2023-04-08T12:07:30.936Z,17.67
2023-04-08T12:09:57.399Z,18.52
2023-04-08T12:12:23.964Z,19.05
2023-04-08T12:14:50.521Z,17.70
2023-04-08T12:17:17.036Z,19.77
2023-04-08T12:19:43.577Z,18.13
2023-04-08T12:22:10.333Z,18.23
2023-04-08T12:24:37.072Z,18.98
2023-04-08T12:27:04.769Z,17.25
2023-04-08T12:29:31.835Z,16.65
2023-04-08T12:31:58.519Z,15.55
2023-04-08T12:34:25.179Z,16.98
2023-04-08T12:36:51.946Z,16.27
2023-04-08T12:39:18.496Z,16.63
2023-04-08T12:41:44.928Z,16.55
2023-04-08T12:44:11.643Z,18.02
2023-04-08T12:46:38.190Z,15.85
2023-04-08T12:49:05.859Z,16.92
2023-04-08T12:51:33.644Z,17.67
2023-04-08T12:54:01.286Z,17.83
2023-04-08T12:56:27.876Z,20.58
2023-04-08T12:58:55.865Z,18.65
2023-04-08T13:01:22.433Z,17.70
2023-04-08T13:03:49.204Z,18.45
2023-04-08T13:06:16.125Z,20.73
2023-04-08T13:08:42.762Z,19.48
2023-04-08T13:11:09.349Z,24.58
2023-04-08T13:13:36.589Z,20.92
2023-04-08T13:16:04.055Z,21.98
2023-04-08T13:18:30.720Z,23.10
2023-04-08T13:20:58.541Z,23.33
2023-04-08T13:23:25.267Z,24.02
2023-04-08T13:25:54.611Z,24.05
2023-04-08T13:28:21.735Z,24.48
2023-04-08T13:30:50.275Z,26.02
2023-04-08T13:33:17.694Z,28.27
2023-04-08T13:35:44.282Z,29.17
2023-04-08T13:38:10.811Z,28.70
2023-04-08T13:40:37.506Z,28.38
2023-04-08T13:43:03.993Z,28.52
2023-04-08T13:45:31.345Z,26.85
2023-04-08T13:47:58.159Z,25.73
2023-04-08T13:50:24.737Z,26.83
2023-04-08T13:52:51.459Z,25.85
2023-04-08T13:55:20.496Z,28.17
2023-04-08T13:57:47.032Z,31.45
2023-04-08T14:00:13.920Z,26.42
2023-04-08T14:02:41.810Z,28.27
2023-04-08T14:05:09.074Z,30.25
2023-04-08T14:07:35.728Z,32.35
2023-04-08T14:10:02.299Z,33.22
2023-04-08T14:12:28.707Z,31.75
2023-04-08T14:14:55.451Z,30.40
2023-04-08T14:17:24.970Z,30.80
2023-04-08T14:19:51.671Z,32.65
2023-04-08T14:22:19.202Z,30.15
2023-04-08T14:24:46.125Z,29.38
2023-04-08T14:27:12.814Z,27.20
2023-04-08T14:29:39.530Z,31.08
2023-04-08T14:32:06.666Z,28.05
2023-04-08T14:34:33.339Z,28.92
2023-04-08T14:36:59.925Z,29.60
2023-04-08T14:39:27.142Z,34.08
2023-04-08T14:41:53.705Z,34.70
2023-04-08T14:44:20.381Z,32.53
2023-04-08T14:46:47.279Z,35.15
2023-04-08T14:49:13.858Z,39.15
2023-04-08T14:51:41.138Z,37.15
2023-04-08T14:54:07.514Z,33.70
2023-04-08T14:56:33.958Z,35.38
2023-04-08T14:59:00.939Z,36.63
2023-04-08T15:01:28.979Z,35.10
2023-04-08T15:03:55.724Z,37.00
2023-04-08T15:06:22.572Z,33.08
2023-04-08T15:08:50.401Z,38.13
2023-04-08T15:11:20.852Z,37.63
2023-04-08T15:13:48.472Z,37.15
2023-04-08T15:16:15.119Z,38.50
2023-04-08T15:18:42.297Z,36.92
2023-04-08T15:21:09.756Z,35.92
2023-04-08T15:23:40.583Z,36.08
2023-04-08T15:26:08.044Z,37.97
2023-04-08T15:28:34.734Z,39.78
2023-04-08T15:31:01.740Z,38.65
2023-04-08T15:33:28.260Z,38.13
2023-04-08T15:35:54.948Z,40.15
2023-04-08T15:38:21.546Z,34.08
2023-04-08T15:40:48.435Z,39.83
2023-04-08T15:43:15.013Z,38.03
2023-04-08T15:45:44.578Z,39.22
2023-04-08T15:48:13.735Z,33.85
2023-04-08T15:50:40.506Z,34.90
2023-04-08T15:53:07.294Z,34.08
2023-04-08T15:55:40.227Z,36.67
2023-04-08T15:58:07.140Z,33.95
2023-04-08T16:00:33.649Z,33.42
2023-04-08T16:03:00.561Z,34.50
2023-04-08T16:05:29.078Z,34.13
2023-04-08T16:07:57.962Z,39.30
2023-04-08T16:10:24.610Z,42.60
2023-04-08T16:12:51.532Z,41.97
2023-04-08T16:15:18.572Z,41.40
2023-04-08T16:17:49.830Z,41.97
2023-04-08T16:20:18.209Z,40.80
2023-04-08T16:22:45.902Z,42.97
2023-04-08T16:25:12.881Z,56.35
2023-04-08T16:27:39.464Z,47.08
2023-04-08T16:30:06.373Z,44.38
2023-04-08T16:32:33.084Z,40.38
2023-04-08T16:34:59.706Z,43.08
2023-04-08T16:37:26.444Z,41.00
2023-04-08T16:39:53.254Z,43.03
2023-04-08T16:42:19.760Z,40.92
2023-04-08T16:44:46.471Z,41.95
2023-04-08T16:47:13.020Z,41.65
2023-04-08T16:49:39.661Z,43.13
2023-04-08T16:52:06.495Z,45.03
2023-04-08T16:54:33.107Z,49.50
2023-04-08T16:56:59.791Z,45.58
2023-04-08T16:59:28.192Z,53.63
2023-04-08T17:01:54.839Z,50.47
2023-04-08T17:04:21.741Z,44.58
2023-04-08T17:06:49.095Z,43.53
2023-04-08T17:09:16.022Z,41.67
2023-04-08T17:11:42.458Z,41.38
2023-04-08T17:14:09.008Z,37.13
2023-04-08T17:16:36.079Z,41.33
2023-04-08T17:19:05.327Z,41.85
2023-04-08T17:21:32.506Z,40.42
2023-04-08T17:23:59.047Z,41.67
2023-04-08T17:26:26.351Z,46.38
2023-04-08T17:28:52.838Z,44.83
2023-04-08T17:31:19.352Z,46.00
2023-04-08T17:33:45.918Z,42.15
2023-04-08T17:36:12.567Z,42.75
2023-04-08T17:38:40.103Z,50.28
2023-04-08T17:41:10.068Z,46.33
2023-04-08T17:43:36.881Z,44.30
2023-04-08T17:46:03.414Z,45.47
2023-04-08T17:48:29.995Z,50.25
2023-04-08T17:51:03.523Z,46.58
2023-04-08T17:53:30.405Z,44.75
2023-04-08T17:55:56.973Z,46.30
2023-04-08T17:58:23.498Z,48.80
2023-04-08T18:00:50.333Z,46.30
2023-04-08T18:03:17.316Z,46.88
2023-04-08T18:05:44.011Z,46.42
2023-04-08T18:08:10.675Z,45.20
2023-04-08T18:10:38.323Z,45.90
2023-04-08T18:15:35.852Z,46.25
2023-04-08T18:18:02.550Z,44.17
2023-04-08T18:20:29.224Z,43.20
2023-04-08T18:22:57.003Z,34.90
2023-04-08T18:25:23.494Z,34.58
2023-04-08T18:27:50.452Z,32.70
2023-04-08T18:30:16.925Z,34.53
2023-04-08T18:32:43.466Z,32.50
2023-04-08T18:35:10.692Z,33.20
2023-04-08T18:37:37.121Z,35.33
2023-04-08T18:40:04.046Z,34.55
2023-04-08T18:42:31.040Z,36.85
2023-04-08T18:44:57.886Z,37.72
2023-04-08T18:47:24.622Z,37.03
2023-04-08T18:49:51.408Z,33.17
2023-04-08T18:52:17.872Z,33.63
2023-04-08T18:54:44.753Z,31.52
2023-04-08T18:57:11.461Z,30.17
2023-04-08T18:59:38.528Z,35.45
2023-04-08T19:02:05.117Z,33.28
2023-04-08T19:04:33.378Z,36.47
2023-04-08T19:07:00.036Z,35.83
2023-04-08T19:09:26.630Z,40.88
2023-04-08T19:11:53.080Z,37.13
2023-04-08T19:14:19.604Z,42.58
2023-04-08T19:16:46.340Z,38.38
2023-04-08T19:19:12.991Z,37.10
2023-04-08T19:21:40.351Z,45.15
2023-04-08T19:24:06.830Z,38.80
2023-04-08T19:26:33.889Z,41.10
2023-04-08T19:29:01.056Z,37.25
2023-04-08T19:31:28.027Z,34.80
2023-04-08T19:33:54.526Z,40.83
2023-04-08T19:36:21.280Z,36.20
2023-04-08T19:38:48.230Z,38.45
2023-04-08T19:41:14.666Z,41.55
2023-04-08T19:43:41.131Z,43.63
2023-04-08T19:46:07.847Z,48.67
2023-04-08T19:48:34.756Z,44.97
2023-04-08T19:51:01.249Z,42.97
2023-04-08T19:53:27.821Z,43.80
2023-04-08T19:56:03.451Z,45.25
2023-04-08T19:58:30.322Z,37.15
2023-04-08T20:00:56.845Z,45.05
2023-04-08T20:03:23.738Z,34.08
2023-04-08T20:05:50.647Z,40.25
2023-04-08T20:08:17.400Z,40.13
2023-04-08T20:10:44.073Z,40.50
2023-04-08T20:13:10.730Z,37.22
2023-04-08T20:15:37.173Z,39.03
2023-04-08T20:18:04.614Z,41.78
2023-04-08T20:20:31.362Z,37.67
2023-04-08T20:22:57.932Z,37.92
2023-04-08T20:25:24.523Z,39.40
2023-04-08T20:27:51.407Z,42.80
2023-04-08T20:30:18.544Z,40.58
2023-04-08T20:32:45.049Z,46.38
2023-04-08T20:35:11.775Z,44.65
2023-04-08T20:37:38.290Z,40.17
2023-04-08T20:40:05.324Z,45.42
2023-04-08T20:42:32.041Z,43.28
2023-04-08T20:44:58.534Z,45.70
2023-04-08T20:47:25.756Z,51.35
2023-04-08T20:49:52.412Z,45.15
2023-04-08T20:52:18.927Z,44.85
2023-04-08T20:54:45.445Z,46.92
2023-04-08T20:57:12.227Z,44.88
2023-04-08T20:59:38.837Z,49.85
2023-04-08T21:02:06.003Z,48.45
2023-04-08T21:04:33.030Z,51.55
2023-04-08T21:06:59.518Z,46.30
2023-04-08T21:09:26.174Z,52.97
2023-04-08T21:11:52.669Z,48.47
2023-04-08T21:14:19.414Z,53.47
2023-04-08T21:16:46.151Z,54.88
2023-04-08T21:19:12.618Z,51.15
2023-04-08T21:21:39.968Z,52.65
2023-04-08T21:24:07.089Z,44.88
2023-04-08T21:26:33.766Z,45.83
2023-04-08T21:29:00.447Z,45.08
2023-04-08T21:31:27.345Z,51.47
2023-04-08T21:33:53.849Z,47.13
2023-04-08T21:36:20.725Z,42.85
2023-04-08T21:38:47.402Z,44.38
2023-04-08T21:41:13.857Z,49.60
2023-04-08T21:43:40.666Z,44.97
2023-04-08T21:46:07.204Z,47.15
2023-04-08T21:48:33.732Z,50.95
2023-04-08T21:51:01.135Z,47.92
2023-04-08T21:53:27.655Z,58.53
2023-04-08T21:55:54.158Z,48.70
2023-04-08T21:58:20.721Z,46.10
2023-04-08T22:00:47.292Z,49.72
2023-04-08T22:03:14.152Z,48.15
2023-04-08T22:05:41.052Z,46.00
2023-04-08T22:08:07.684Z,44.65
2023-04-08T22:10:34.260Z,49.03
2023-04-08T22:13:00.931Z,47.00
2023-04-08T22:15:27.492Z,44.80
2023-04-08T22:17:54.150Z,46.88
2023-04-08T22:20:20.904Z,46.05
2023-04-08T22:22:47.471Z,44.80
2023-04-08T22:25:14.037Z,41.38
2023-04-08T22:27:40.519Z,44.00
2023-04-08T22:30:07.316Z,42.20
2023-04-08T22:32:33.874Z,38.75
2023-04-08T22:35:00.501Z,42.70
2023-04-08T22:37:26.952Z,52.67
2023-04-08T22:39:53.529Z,44.45
2023-04-08T22:42:20.698Z,45.35
2023-04-08T22:44:47.401Z,48.50
2023-04-08T22:47:13.966Z,43.88
2023-04-08T22:49:42.563Z,45.47
2023-04-08T22:52:09.130Z,51.83
2023-04-08T22:54:35.954Z,54.13
2023-04-08T22:57:02.548Z,51.75
2023-04-08T22:59:29.159Z,59.35
2023-04-08T23:01:55.728Z,57.80
2023-04-08T23:04:22.406Z,62.25
2023-04-08T23:06:48.901Z,62.28
2023-04-08T23:09:15.541Z,58.72
2023-04-08T23:11:41.993Z,64.03
2023-04-08T23:14:08.561Z,60.35
2023-04-08T23:16:35.727Z,64.95
2023-04-08T23:19:02.331Z,58.40
2023-04-08T23:21:28.825Z,57.30
2023-04-08T23:23:56.894Z,62.05
2023-04-08T23:26:25.672Z,57.53
2023-04-08T23:28:52.455Z,62.67
2023-04-08T23:31:19.531Z,63.03
2023-04-08T23:33:46.072Z,66.63
2023-04-08T23:36:12.886Z,62.50
2023-04-08T23:38:39.642Z,66.75
2023-04-08T23:41:06.683Z,70.07
2023-04-08T23:43:33.501Z,73.05
2023-04-08T23:46:00.050Z,74.70
2023-04-08T23:48:26.723Z,77.72
2023-04-08T23:50:53.493Z,72.78
2023-04-08T23:53:20.040Z,61.13
2023-04-08T23:55:46.840Z,61.08
2023-04-08T23:58:13.570Z,57.67
